Time;durP1;ratioP1;P1;durP2;ratioP2;P2;SDS_P1;SDS_P2;PMS_P1;PMS_P2;Temp;Humidity;BMP_temperature;BMP_pressure;BME280_temperature;BME280_humidity;BME280_pressure;Samples;Min_cycle;Max_cycle;Signal;HPM_P1;HPM_P2
2023/10/28 00:00:45;;;;;;;;;;;18.00;94.40;;;;;;6068715;23;19902;-72
2023/10/28 00:03:11;;;;;;;;;;;18.00;94.20;;;;;;6068131;23;19913;-72
2023/10/28 00:05:37;;;;;;;;;;;17.70;94.20;;;;;;6068614;23;19932;-72
2023/10/28 00:08:03;;;;;;;;;;;17.90;94.20;;;;;;6068571;23;19965;-73
2023/10/28 00:10:33;;;;;;;;;;;18.00;94.40;;;;;;6068836;23;19902;-72
2023/10/28 00:12:59;;;;;;;;;;;18.00;94.30;;;;;;6068319;23;19976;-72
2023/10/28 00:15:25;;;;;;;;;;;17.90;94.40;;;;;;6067831;23;20274;-72
2023/10/28 00:17:51;;;;;;;;;;;18.00;94.40;;;;;;6067943;23;20314;-72
2023/10/28 00:20:17;;;;;;;;;;;18.00;94.30;;;;;;6068173;23;19949;-72
2023/10/28 00:22:49;;;;;;;;;;;17.90;94.30;;;;;;6068033;23;19908;-83
2023/10/28 00:25:15;;;;;;;;;;;18.00;92.10;;;;;;6067922;23;19902;-83
2023/10/28 00:27:41;;;;;;;;;;;18.00;94.30;;;;;;6067974;23;19928;-83
2023/10/28 00:30:15;;;;;;;;;;;18.00;94.30;;;;;;6067954;23;19901;-83
2023/10/28 00:32:42;;;;;;;;;;;17.90;93.70;;;;;;6077551;23;20024;-83
2023/10/28 00:35:08;;;;;;;;;;;18.00;94.20;;;;;;6077432;23;19942;-83
2023/10/28 00:37:36;;;;;;;;;;;18.00;94.10;;;;;;6077407;23;20241;-83
2023/10/28 00:40:05;;;;;;;;;;;17.90;94.30;;;;;;6078084;23;19968;-83
2023/10/28 00:42:33;;;;;;;;;;;17.90;94.30;;;;;;6052750;23;19912;-83
2023/10/28 00:44:58;;;;;;;;;;;18.00;94.40;;;;;;6052254;23;19936;-83
2023/10/28 00:47:24;;;;;;;;;;;18.00;94.40;;;;;;6051799;23;19913;-83
2023/10/28 00:49:50;;;;;;;;;;;17.90;94.30;;;;;;6042425;23;19905;-81
2023/10/28 00:52:18;;;;;;;;;;;18.00;94.50;;;;;;6042405;23;19916;-83
2023/10/28 00:54:44;;;;;;;;;;;17.90;94.40;;;;;;6067617;23;19920;-83
2023/10/28 00:57:10;;;;;;;;;;;17.90;94.40;;;;;;6042241;23;19929;-83
2023/10/28 00:59:35;;;;;;;;;;;17.90;94.30;;;;;;6067621;23;20257;-83
2023/10/28 01:02:01;;;;;;;;;;;17.90;94.20;;;;;;6067322;23;19914;-82
2023/10/28 01:04:26;;;;;;;;;;;17.90;94.30;;;;;;6067625;23;19941;-83
2023/10/28 01:06:52;;;;;;;;;;;18.00;94.30;;;;;;6068222;23;19901;-83
2023/10/28 01:09:18;;;;;;;;;;;17.80;94.30;;;;;;6067653;23;19928;-82
2023/10/28 01:11:44;;;;;;;;;;;17.90;94.50;;;;;;6067399;23;19902;-81
2023/10/28 01:14:11;;;;;;;;;;;17.90;94.50;;;;;;6067467;23;19964;-82
2023/10/28 01:16:36;;;;;;;;;;;17.80;94.60;;;;;;6067339;23;19910;-82
2023/10/28 01:19:02;;;;;;;;;;;18.10;94.70;;;;;;6067537;23;19949;-83
2023/10/28 01:21:27;;;;;;;;;;;17.90;94.70;;;;;;6067434;23;20230;-83
2023/10/28 01:23:54;;;;;;;;;;;17.90;94.70;;;;;;6067463;23;19944;-83
2023/10/28 01:26:20;;;;;;;;;;;18.00;95.00;;;;;;6067443;23;19901;-83
2023/10/28 01:28:45;;;;;;;;;;;17.90;94.70;;;;;;6067449;23;19905;-83
2023/10/28 01:31:11;;;;;;;;;;;17.90;94.80;;;;;;6067547;23;19909;-83
2023/10/28 01:33:36;;;;;;;;;;;17.90;94.80;;;;;;6067446;23;20369;-83
2023/10/28 01:36:02;;;;;;;;;;;17.90;94.70;;;;;;6067940;23;19910;-72
2023/10/28 01:38:27;;;;;;;;;;;17.90;94.60;;;;;;6067571;23;19902;-72
2023/10/28 01:40:53;;;;;;;;;;;18.20;94.80;;;;;;6067572;23;19913;-72
2023/10/28 01:43:19;;;;;;;;;;;17.90;94.70;;;;;;6067389;23;19932;-72
2023/10/28 01:45:45;;;;;;;;;;;17.90;94.90;;;;;;6067354;23;19901;-72
2023/10/28 01:48:11;;;;;;;;;;;17.90;94.70;;;;;;6067700;23;19901;-83
2023/10/28 01:50:37;;;;;;;;;;;17.90;94.80;;;;;;6067979;23;19956;-82
2023/10/28 01:53:03;;;;;;;;;;;17.90;94.70;;;;;;6067897;23;20316;-82
2023/10/28 01:55:29;;;;;;;;;;;18.00;94.70;;;;;;6067834;23;19929;-82
2023/10/28 01:57:55;;;;;;;;;;;17.90;94.80;;;;;;6067450;23;20302;-82
2023/10/28 02:00:22;;;;;;;;;;;17.90;94.70;;;;;;6067745;23;20296;-82
2023/10/28 02:02:50;;;;;;;;;;;17.90;94.60;;;;;;6067332;23;19913;-82
2023/10/28 02:05:16;;;;;;;;;;;17.80;94.50;;;;;;6068275;23;19953;-72
2023/10/28 02:07:42;;;;;;;;;;;17.90;94.60;;;;;;6067428;23;19949;-72
2023/10/28 02:10:09;;;;;;;;;;;17.90;94.70;;;;;;6068933;23;19902;-72
2023/10/28 02:12:35;;;;;;;;;;;17.90;94.30;;;;;;6069838;23;19908;-72
2023/10/28 02:15:05;;;;;;;;;;;17.90;94.80;;;;;;6069781;23;20206;-72
2023/10/28 02:17:31;;;;;;;;;;;18.00;92.50;;;;;;6069726;23;20229;-72
2023/10/28 02:19:57;;;;;;;;;;;18.00;95.20;;;;;;6069127;23;19901;-72
2023/10/28 02:22:22;;;;;;;;;;;17.90;94.70;;;;;;6069304;23;19905;-72
2023/10/28 02:24:48;;;;;;;;;;;17.90;94.80;;;;;;6069340;23;20207;-72
2023/10/28 02:27:14;;;;;;;;;;;17.90;94.70;;;;;;6069325;23;20200;-72
2023/10/28 02:29:40;;;;;;;;;;;17.90;94.80;;;;;;6069160;23;20033;-72
2023/10/28 02:32:08;;;;;;;;;;;17.90;94.70;;;;;;6070098;23;19933;-82
2023/10/28 02:34:34;;;;;;;;;;;17.90;94.90;;;;;;6069450;23;19908;-83
2023/10/28 02:37:00;;;;;;;;;;;17.90;94.90;;;;;;6069399;23;19913;-82
2023/10/28 02:39:26;;;;;;;;;;;17.90;94.70;;;;;;6069555;23;19957;-83
2023/10/28 02:41:53;;;;;;;;;;;18.00;94.80;;;;;;6069032;23;19956;-82
2023/10/28 02:44:19;;;;;;;;;;;17.90;94.80;;;;;;6069142;23;19909;-83
2023/10/28 02:46:44;;;;;;;;;;;17.80;94.70;;;;;;6068975;23;19902;-83
2023/10/28 02:49:11;;;;;;;;;;;17.90;94.70;;;;;;6068842;23;20322;-83
2023/10/28 02:51:37;;;;;;;;;;;17.90;94.70;;;;;;6069448;23;19901;-83
2023/10/28 02:54:02;;;;;;;;;;;17.90;94.60;;;;;;6068784;23;19944;-83
2023/10/28 02:56:28;;;;;;;;;;;17.90;94.60;;;;;;6068754;23;19910;-83
2023/10/28 02:58:54;;;;;;;;;;;18.10;94.90;;;;;;6068794;23;19901;-83
2023/10/28 03:01:19;;;;;;;;;;;17.90;94.60;;;;;;6069276;23;19912;-72
2023/10/28 03:03:45;;;;;;;;;;;17.90;94.70;;;;;;6068661;23;19952;-73
2023/10/28 03:06:11;;;;;;;;;;;17.90;94.70;;;;;;6068665;23;19932;-72
2023/10/28 03:08:38;;;;;;;;;;;17.90;94.60;;;;;;6069297;23;19909;-72
2023/10/28 03:11:04;;;;;;;;;;;17.90;94.80;;;;;;6068746;23;20004;-72
2023/10/28 03:13:30;;;;;;;;;;;17.90;94.70;;;;;;6069349;23;19902;-83
2023/10/28 03:15:56;;;;;;;;;;;17.90;94.70;;;;;;6069041;23;19964;-83
2023/10/28 03:18:23;;;;;;;;;;;17.90;94.60;;;;;;6068842;23;20238;-83
2023/10/28 03:20:48;;;;;;;;;;;17.80;94.70;;;;;;6068502;23;19901;-83
2023/10/28 03:23:15;;;;;;;;;;;17.80;94.60;;;;;;6069043;23;19933;-83
2023/10/28 03:25:41;;;;;;;;;;;17.90;94.60;;;;;;6069048;23;19906;-83
2023/10/28 03:28:08;;;;;;;;;;;17.90;94.60;;;;;;6068581;23;19909;-83
2023/10/28 03:30:33;;;;;;;;;;;18.10;94.60;;;;;;6069052;23;19908;-72
2023/10/28 03:32:59;;;;;;;;;;;17.90;94.70;;;;;;6068370;23;20317;-72
2023/10/28 03:35:25;;;;;;;;;;;17.80;94.40;;;;;;6069301;23;19937;-72
2023/10/28 03:37:51;;;;;;;;;;;17.90;94.60;;;;;;6069043;23;20233;-72
2023/10/28 03:40:17;;;;;;;;;;;18.00;94.60;;;;;;6068918;23;19929;-72
2023/10/28 03:42:43;;;;;;;;;;;17.90;94.60;;;;;;6068977;23;19909;-72
2023/10/28 03:45:09;;;;;;;;;;;17.90;94.60;;;;;;6043656;23;19908;-72
2023/10/28 03:47:35;;;;;;;;;;;17.90;94.70;;;;;;6068902;23;20234;-72
2023/10/28 03:50:01;;;;;;;;;;;17.50;94.40;;;;;;6068479;23;19902;-72
2023/10/28 03:52:27;;;;;;;;;;;17.80;94.50;;;;;;6068742;23;19902;-72
2023/10/28 03:54:53;;;;;;;;;;;17.90;94.70;;;;;;6068325;23;19961;-72
2023/10/28 03:57:20;;;;;;;;;;;17.90;94.70;;;;;;6068672;23;19933;-72
2023/10/28 03:59:48;;;;;;;;;;;17.90;94.80;;;;;;6068941;23;19905;-83
2023/10/28 04:02:14;;;;;;;;;;;17.90;94.60;;;;;;6068155;23;19916;-82
2023/10/28 04:04:40;;;;;;;;;;;17.90;94.80;;;;;;6078073;23;19902;-83
2023/10/28 04:07:06;;;;;;;;;;;17.90;94.80;;;;;;6068446;23;19905;-83
2023/10/28 04:09:32;;;;;;;;;;;17.80;94.80;;;;;;6068715;23;20290;-83
2023/10/28 04:12:00;;;;;;;;;;;18.00;94.70;;;;;;6068790;23;19902;-83
2023/10/28 04:14:26;;;;;;;;;;;17.90;94.80;;;;;;6068235;23;19937;-83
2023/10/28 04:16:51;;;;;;;;;;;17.90;95.00;;;;;;6067969;23;19944;-84
2023/10/28 04:19:17;;;;;;;;;;;17.90;94.90;;;;;;6068060;23;19908;-83
2023/10/28 04:21:43;;;;;;;;;;;17.90;95.00;;;;;;6068051;23;20211;-83
2023/10/28 04:24:09;;;;;;;;;;;17.80;94.70;;;;;;6068013;23;20320;-84
2023/10/28 04:26:35;;;;;;;;;;;17.90;94.90;;;;;;6068993;23;19902;-72
2023/10/28 04:29:00;;;;;;;;;;;17.80;94.80;;;;;;6067854;23;19924;-72
2023/10/28 04:31:27;;;;;;;;;;;18.10;95.00;;;;;;6067615;23;19909;-72
2023/10/28 04:33:52;;;;;;;;;;;17.90;95.00;;;;;;6067604;23;19901;-72
2023/10/28 04:36:18;;;;;;;;;;;17.80;95.00;;;;;;6068146;23;20238;-72
2023/10/28 04:38:43;;;;;;;;;;;17.90;95.00;;;;;;6067678;23;19909;-72
2023/10/28 04:41:09;;;;;;;;;;;17.70;94.90;;;;;;6068356;23;19909;-73
2023/10/28 04:43:35;;;;;;;;;;;17.90;95.00;;;;;;6068269;23;19901;-72
2023/10/28 04:46:01;;;;;;;;;;;17.90;95.00;;;;;;6068334;23;20247;-72
2023/10/28 04:48:28;;;;;;;;;;;17.90;94.90;;;;;;6068262;23;19909;-73
2023/10/28 04:50:54;;;;;;;;;;;17.90;95.00;;;;;;6043417;23;19941;-72
2023/10/28 04:53:22;;;;;;;;;;;17.90;95.00;;;;;;6068318;23;19908;-72
2023/10/28 04:55:48;;;;;;;;;;;17.80;94.90;;;;;;6068621;23;19937;-72
2023/10/28 04:58:14;;;;;;;;;;;17.90;95.00;;;;;;6068346;23;19908;-73
2023/10/28 05:00:41;;;;;;;;;;;17.80;94.80;;;;;;6068219;23;20266;-73
2023/10/28 05:03:07;;;;;;;;;;;17.80;94.80;;;;;;6067560;23;19968;-72
2023/10/28 05:05:33;;;;;;;;;;;17.90;95.00;;;;;;6067645;23;20302;-72
2023/10/28 05:07:59;;;;;;;;;;;17.80;95.00;;;;;;6068055;23;19906;-72
2023/10/28 05:10:25;;;;;;;;;;;17.90;95.00;;;;;;6068078;23;19901;-73
2023/10/28 05:12:51;;;;;;;;;;;17.80;95.00;;;;;;6068048;23;20324;-73
2023/10/28 05:15:17;;;;;;;;;;;17.80;94.90;;;;;;6067737;23;20302;-73
2023/10/28 05:17:43;;;;;;;;;;;17.90;94.80;;;;;;6067643;23;19902;-72
2023/10/28 05:20:09;;;;;;;;;;;17.90;94.90;;;;;;6067619;23;19908;-72
2023/10/28 05:22:35;;;;;;;;;;;;;;;;;;6067942;23;20225;-71
2023/10/28 05:25:04;;;;;;;;;;;17.80;94.90;;;;;;6068174;23;19902;-87
2023/10/28 05:27:30;;;;;;;;;;;17.90;95.00;;;;;;6067758;23;19901;-82
2023/10/28 05:29:56;;;;;;;;;;;17.80;95.10;;;;;;6067516;23;19906;-82
2023/10/28 05:32:23;;;;;;;;;;;;;;;;;;6042771;23;19936;-83
2023/10/28 05:34:49;;;;;;;;;;;17.80;93.40;;;;;;6067928;23;19905;-72
2023/10/28 05:37:16;;;;;;;;;;;17.80;94.80;;;;;;6042475;23;19917;-83
2023/10/28 05:39:42;;;;;;;;;;;17.80;94.80;;;;;;6042687;23;20278;-82
2023/10/28 05:42:10;;;;;;;;;;;17.80;94.80;;;;;;6042382;23;19968;-82
2023/10/28 05:44:37;;;;;;;;;;;17.80;95.00;;;;;;6042423;23;19950;-82
2023/10/28 05:47:04;;;;;;;;;;;17.90;95.00;;;;;;6042556;23;19906;-78
2023/10/28 05:49:30;;;;;;;;;;;17.80;94.50;;;;;;6042880;23;19905;-81
2023/10/28 05:51:56;;;;;;;;;;;17.70;94.70;;;;;;6043077;23;19905;-82
2023/10/28 05:54:22;;;;;;;;;;;17.90;94.90;;;;;;6042525;23;20314;-80
2023/10/28 05:56:48;;;;;;;;;;;17.80;94.90;;;;;;6067694;23;19914;-80
2023/10/28 05:59:15;;;;;;;;;;;17.80;94.80;;;;;;6042354;23;20214;-80
2023/10/28 06:01:41;;;;;;;;;;;17.90;94.70;;;;;;6041995;23;19960;-85
2023/10/28 06:04:07;;;;;;;;;;;17.80;94.80;;;;;;6051983;23;19931;-74
2023/10/28 06:06:33;;;;;;;;;;;17.80;94.60;;;;;;6041965;23;19906;-73
2023/10/28 06:09:00;;;;;;;;;;;18.00;95.00;;;;;;6042130;23;19909;-72
2023/10/28 06:11:26;;;;;;;;;;;17.70;94.80;;;;;;6042211;23;19909;-72
2023/10/28 06:13:52;;;;;;;;;;;17.80;95.10;;;;;;6041961;23;19929;-72
2023/10/28 06:16:19;;;;;;;;;;;17.80;95.10;;;;;;6042555;23;20000;-73
2023/10/28 06:18:45;;;;;;;;;;;17.80;95.20;;;;;;6042167;23;19985;-73
2023/10/28 06:21:11;;;;;;;;;;;17.80;95.00;;;;;;6042643;23;20293;-81
2023/10/28 06:23:40;;;;;;;;;;;17.60;95.10;;;;;;6067341;23;19913;-80
2023/10/28 06:26:10;;;;;;;;;;;17.80;94.80;;;;;;6042858;23;20321;-80
2023/10/28 06:28:37;;;;;;;;;;;17.90;95.00;;;;;;6042567;23;19985;-80
2023/10/28 06:31:03;;;;;;;;;;;17.80;95.20;;;;;;6042561;23;20298;-80
2023/10/28 06:33:29;;;;;;;;;;;17.90;95.00;;;;;;6042073;23;19929;-73
2023/10/28 06:35:55;;;;;;;;;;;17.80;95.30;;;;;;6042268;23;20287;-72
2023/10/28 06:38:25;;;;;;;;;;;17.90;95.10;;;;;;6042162;23;20446;-72
2023/10/28 06:40:51;;;;;;;;;;;17.90;95.20;;;;;;6042738;23;19912;-73
2023/10/28 06:43:17;;;;;;;;;;;17.80;95.10;;;;;;6042095;23;20340;-73
2023/10/28 06:45:43;;;;;;;;;;;17.80;95.20;;;;;;6042562;23;19905;-74
2023/10/28 06:48:10;;;;;;;;;;;17.90;95.30;;;;;;6042432;23;19985;-73
2023/10/28 06:50:36;;;;;;;;;;;17.90;95.10;;;;;;6042993;23;19909;-85
2023/10/28 06:53:02;;;;;;;;;;;17.90;95.20;;;;;;6042515;23;20314;-84
2023/10/28 06:55:28;;;;;;;;;;;17.90;95.20;;;;;;6042658;23;19968;-82
2023/10/28 06:57:55;;;;;;;;;;;17.80;95.20;;;;;;6043964;23;19938;-79
2023/10/28 07:00:26;;;;;;;;;;;18.00;95.20;;;;;;6044182;23;20219;-85
2023/10/28 07:02:53;;;;;;;;;;;17.90;95.00;;;;;;6056551;23;19918;-82
2023/10/28 07:05:19;;;;;;;;;;;17.90;95.20;;;;;;6068974;23;19972;-78
2023/10/28 07:07:45;;;;;;;;;;;17.80;95.00;;;;;;6069316;23;20218;-80
2023/10/28 07:10:17;;;;;;;;;;;17.90;95.30;;;;;;6069364;23;19929;-78
2023/10/28 07:12:43;;;;;;;;;;;17.90;93.50;;;;;;6078799;23;20025;-77
2023/10/28 07:15:10;;;;;;;;;;;17.90;95.30;;;;;;6068657;23;19916;-77
2023/10/28 07:17:37;;;;;;;;;;;17.70;95.00;;;;;;6069693;23;19906;-74
2023/10/28 07:20:03;;;;;;;;;;;17.80;95.20;;;;;;6068708;23;20031;-74
2023/10/28 07:22:29;;;;;;;;;;;17.90;94.60;;;;;;6068934;23;19949;-75
2023/10/28 07:24:55;;;;;;;;;;;18.10;95.30;;;;;;6069174;23;19901;-75
2023/10/28 07:27:21;;;;;;;;;;;17.90;95.10;;;;;;6068844;23;19905;-74
2023/10/28 07:29:49;;;;;;;;;;;17.80;95.00;;;;;;6069307;23;19940;-73
2023/10/28 07:32:16;;;;;;;;;;;17.80;92.50;;;;;;6068950;23;19923;-73
2023/10/28 07:34:42;;;;;;;;;;;17.90;95.00;;;;;;6069123;23;19908;-73
2023/10/28 07:37:07;;;;;;;;;;;17.90;95.10;;;;;;6068333;23;20245;-73
2023/10/28 07:39:34;;;;;;;;;;;17.90;95.00;;;;;;6068657;23;19902;-73
2023/10/28 07:41:59;;;;;;;;;;;17.90;95.00;;;;;;6069068;23;19912;-73
2023/10/28 07:44:25;;;;;;;;;;;17.90;95.00;;;;;;6068402;23;20024;-73
2023/10/28 07:46:50;;;;;;;;;;;18.00;94.90;;;;;;6068977;23;19902;-85
2023/10/28 07:49:16;;;;;;;;;;;17.90;95.00;;;;;;6068579;23;19909;-85
2023/10/28 07:51:42;;;;;;;;;;;17.80;94.90;;;;;;6068811;23;19949;-85
2023/10/28 07:54:10;;;;;;;;;;;17.80;94.90;;;;;;6068638;23;19901;-85
2023/10/28 07:56:36;;;;;;;;;;;17.90;95.00;;;;;;6068440;23;19919;-84
2023/10/28 07:59:02;;;;;;;;;;;17.90;95.00;;;;;;6068952;23;19902;-73
2023/10/28 08:01:29;;;;;;;;;;;17.80;94.80;;;;;;6068415;23;20211;-73
2023/10/28 08:03:58;;;;;;;;;;;17.80;95.10;;;;;;6068402;23;19969;-73
2023/10/28 08:06:24;;;;;;;;;;;17.80;92.70;;;;;;6068154;23;19901;-73
2023/10/28 08:08:54;;;;;;;;;;;17.80;95.00;;;;;;6068742;23;20043;-72
2023/10/28 08:11:24;;;;;;;;;;;17.80;92.40;;;;;;6069189;23;19908;-72
2023/10/28 08:13:50;;;;;;;;;;;17.80;95.00;;;;;;6068190;23;19902;-72
2023/10/28 08:16:19;;;;;;;;;;;17.90;94.90;;;;;;6069191;23;19914;-86
2023/10/28 08:18:45;;;;;;;;;;;17.80;94.90;;;;;;6068564;23;19901;-82
2023/10/28 08:21:13;;;;;;;;;;;17.90;95.00;;;;;;6068718;23;19902;-83
2023/10/28 08:23:40;;;;;;;;;;;17.80;94.90;;;;;;6068674;23;20307;-84
2023/10/28 08:26:14;;;;;;;;;;;18.00;95.10;;;;;;6068615;23;19976;-79
2023/10/28 08:28:40;;;;;;;;;;;17.90;92.70;;;;;;6078155;23;19902;-80
2023/10/28 08:31:07;;;;;;;;;;;17.90;95.00;;;;;;6068426;23;19961;-78
2023/10/28 08:33:35;;;;;;;;;;;17.90;95.00;;;;;;6068711;23;19902;-84
2023/10/28 08:36:00;;;;;;;;;;;17.90;95.00;;;;;;6068366;23;19963;-83
2023/10/28 08:38:27;;;;;;;;;;;17.80;94.90;;;;;;6068256;23;19902;-78
2023/10/28 08:40:53;;;;;;;;;;;18.00;94.90;;;;;;6068093;23;19908;-80
2023/10/28 08:43:19;;;;;;;;;;;17.90;94.80;;;;;;6068590;23;20182;-73
2023/10/28 08:45:45;;;;;;;;;;;18.00;94.90;;;;;;6067883;23;19901;-73
2023/10/28 08:48:14;;;;;;;;;;;18.00;95.00;;;;;;6068002;23;19902;-73
2023/10/28 08:50:43;;;;;;;;;;;17.90;95.00;;;;;;6067937;23;19909;-73
2023/10/28 08:53:09;;;;;;;;;;;17.90;94.80;;;;;;6068335;23;19989;-73
2023/10/28 08:55:38;;;;;;;;;;;18.00;95.10;;;;;;6067852;23;19945;-73
2023/10/28 08:58:06;;;;;;;;;;;18.00;92.70;;;;;;6068000;23;19901;-73
2023/10/28 09:00:34;;;;;;;;;;;18.00;95.00;;;;;;6067783;23;20410;-72
2023/10/28 09:03:01;;;;;;;;;;;18.00;95.00;;;;;;6067585;23;19917;-72
2023/10/28 09:05:26;;;;;;;;;;;18.20;95.20;;;;;;6067801;23;19905;-73
2023/10/28 09:07:52;;;;;;;;;;;18.00;95.10;;;;;;6067854;23;19980;-74
2023/10/28 09:10:17;;;;;;;;;;;18.00;95.10;;;;;;6068351;23;19901;-74
2023/10/28 09:12:46;;;;;;;;;;;18.10;95.00;;;;;;6068888;23;19901;-81
2023/10/28 09:15:12;;;;;;;;;;;18.00;93.70;;;;;;6067934;23;19956;-82
2023/10/28 09:17:41;;;;;;;;;;;18.10;95.30;;;;;;6068181;23;19905;-80
2023/10/28 09:20:11;;;;;;;;;;;18.10;93.30;;;;;;6067803;23;19908;-76
2023/10/28 09:22:38;;;;;;;;;;;18.00;93.80;;;;;;6067648;23;19902;-73
2023/10/28 09:25:04;;;;;;;;;;;18.00;95.00;;;;;;6068416;23;19940;-72
2023/10/28 09:27:30;;;;;;;;;;;18.10;94.50;;;;;;6068203;23;19902;-73
2023/10/28 09:30:08;;;;;;;;;;;18.10;95.30;;;;;;6067688;23;19913;-73
2023/10/28 09:32:34;;;;;;;;;;;18.10;93.00;;;;;;6067441;23;19901;-72
2023/10/28 09:35:06;;;;;;;;;;;18.10;95.30;;;;;;6067460;23;19909;-73
2023/10/28 09:37:35;;;;;;;;;;;18.10;92.90;;;;;;6067489;23;19909;-73
2023/10/28 09:40:04;;;;;;;;;;;18.10;93.00;;;;;;6068202;23;19909;-73
2023/10/28 09:42:33;;;;;;;;;;;18.10;95.40;;;;;;6077127;23;20318;-73
2023/10/28 09:45:00;;;;;;;;;;;18.10;93.00;;;;;;6077162;23;19906;-71
2023/10/28 09:47:38;;;;;;;;;;;18.20;95.70;;;;;;6067726;23;19901;-72
2023/10/28 09:50:06;;;;;;;;;;;18.10;95.30;;;;;;6067563;23;19976;-72
2023/10/28 09:52:32;;;;;;;;;;;18.20;95.00;;;;;;6077054;23;19902;-73
2023/10/28 09:55:02;;;;;;;;;;;18.10;95.20;;;;;;6067595;23;19902;-73
2023/10/28 09:57:30;;;;;;;;;;;18.20;95.30;;;;;;6068138;23;20261;-72
2023/10/28 09:59:56;;;;;;;;;;;18.20;95.30;;;;;;6067882;23;19913;-72
2023/10/28 10:02:38;;;;;;;;;;;18.20;95.10;;;;;;6067312;23;19941;-72
2023/10/28 10:05:10;;;;;;;;;;;18.20;92.90;;;;;;6076995;23;19980;-73
2023/10/28 10:07:36;;;;;;;;;;;18.20;95.30;;;;;;6067375;23;19937;-72
2023/10/28 10:10:05;;;;;;;;;;;18.30;95.20;;;;;;6067966;23;19901;-81
2023/10/28 10:12:31;;;;;;;;;;;18.20;92.80;;;;;;6077033;23;19980;-81
2023/10/28 10:14:59;;;;;;;;;;;18.20;95.20;;;;;;6067438;23;19905;-80
2023/10/28 10:17:48;;;;;;;;;;;16.40;94.80;;;;;;6067480;23;19986;-80
2023/10/28 10:20:22;;;;;;;;;;;18.20;92.90;;;;;;6077156;23;20263;-72
2023/10/28 10:22:53;;;;;;;;;;;18.10;95.00;;;;;;6067629;23;19976;-83
2023/10/28 10:25:29;;;;;;;;;;;18.20;94.90;;;;;;6067479;23;19982;-74
2023/10/28 10:28:04;;;;;;;;;;;18.30;95.20;;;;;;6067476;23;19902;-77
2023/10/28 10:30:32;;;;;;;;;;;18.20;95.30;;;;;;6068089;23;19965;-75
2023/10/28 10:32:58;;;;;;;;;;;18.30;95.10;;;;;;6069242;23;19901;-76
2023/10/28 10:35:28;;;;;;;;;;;18.20;95.00;;;;;;6069095;23;19964;-75
2023/10/28 10:38:07;;;;;;;;;;;18.20;92.70;;;;;;6069763;23;19993;-75
2023/10/28 10:40:33;;;;;;;;;;;18.20;92.90;;;;;;6069734;23;19906;-75
2023/10/28 10:43:06;;;;;;;;;;;18.20;95.10;;;;;;6069140;23;19992;-74
2023/10/28 10:45:32;;;;;;;;;;;18.20;93.00;;;;;;6069132;23;19908;-75
2023/10/28 10:47:58;;;;;;;;;;;18.30;95.00;;;;;;6069112;23;19902;-78
2023/10/28 10:50:24;;;;;;;;;;;18.30;94.80;;;;;;6068980;23;20249;-73
2023/10/28 10:52:50;;;;;;;;;;;18.30;94.90;;;;;;6068902;23;20231;-74
2023/10/28 10:55:23;;;;;;;;;;;18.50;94.90;;;;;;6069472;23;20006;-76
2023/10/28 10:57:49;;;;;;;;;;;18.40;92.50;;;;;;6069086;23;19902;-74
2023/10/28 11:00:15;;;;;;;;;;;18.30;94.90;;;;;;6068962;23;19902;-74
2023/10/28 11:02:41;;;;;;;;;;;18.30;94.60;;;;;;6068808;23;19921;-74
2023/10/28 11:05:08;;;;;;;;;;;18.50;94.80;;;;;;6069243;23;19901;-80
2023/10/28 11:07:34;;;;;;;;;;;18.40;94.50;;;;;;6068764;23;19902;-78
2023/10/28 11:09:59;;;;;;;;;;;18.50;94.70;;;;;;6068762;23;19953;-82
2023/10/28 11:12:25;;;;;;;;;;;18.50;94.70;;;;;;6068800;23;19905;-80
2023/10/28 11:14:52;;;;;;;;;;;18.50;94.50;;;;;;6068728;23;20318;-80
2023/10/28 11:17:18;;;;;;;;;;;18.50;94.70;;;;;;6068654;23;19917;-72
2023/10/28 11:19:48;;;;;;;;;;;18.50;94.50;;;;;;6069312;23;19928;-72
2023/10/28 11:22:15;;;;;;;;;;;18.50;92.40;;;;;;6068956;23;19902;-73
2023/10/28 11:24:41;;;;;;;;;;;18.50;94.80;;;;;;6069167;23;20291;-74
2023/10/28 11:27:07;;;;;;;;;;;18.50;94.80;;;;;;6068519;23;19905;-73
2023/10/28 11:29:37;;;;;;;;;;;18.50;94.80;;;;;;6068629;23;19957;-72
2023/10/28 11:32:07;;;;;;;;;;;18.50;94.60;;;;;;6044287;23;19925;-73
2023/10/28 11:34:35;;;;;;;;;;;18.50;94.70;;;;;;6069090;23;19912;-81
2023/10/28 11:37:01;;;;;;;;;;;18.50;94.90;;;;;;6068429;23;19909;-81
2023/10/28 11:39:30;;;;;;;;;;;18.60;94.70;;;;;;6068683;23;19944;-81
2023/10/28 11:41:55;;;;;;;;;;;18.50;94.70;;;;;;6067965;23;19901;-81
2023/10/28 11:44:24;;;;;;;;;;;18.70;94.70;;;;;;6068491;23;19908;-81
2023/10/28 11:46:50;;;;;;;;;;;18.70;94.70;;;;;;6068546;23;19911;-72
2023/10/28 11:49:15;;;;;;;;;;;18.80;94.60;;;;;;6068389;23;19913;-73
2023/10/28 11:51:41;;;;;;;;;;;18.70;94.50;;;;;;6068414;23;20310;-73
2023/10/28 11:54:06;;;;;;;;;;;18.80;94.50;;;;;;6068393;23;20236;-72
2023/10/28 11:56:32;;;;;;;;;;;18.80;94.30;;;;;;6068381;23;19957;-72
2023/10/28 11:58:58;;;;;;;;;;;18.80;94.40;;;;;;6068343;23;20034;-73
2023/10/28 12:01:26;;;;;;;;;;;18.80;94.20;;;;;;6068481;23;19908;-73
2023/10/28 12:03:51;;;;;;;;;;;18.80;94.40;;;;;;6068864;23;19914;-80
2023/10/28 12:06:17;;;;;;;;;;;18.70;94.20;;;;;;6068335;23;19902;-81
2023/10/28 12:08:42;;;;;;;;;;;18.80;94.30;;;;;;6068996;23;19906;-80
2023/10/28 12:11:08;;;;;;;;;;;18.90;94.30;;;;;;6068287;23;19908;-80
2023/10/28 12:13:34;;;;;;;;;;;19.00;94.10;;;;;;6068383;23;19901;-80
2023/10/28 12:16:00;;;;;;;;;;;18.80;93.90;;;;;;6068777;23;19910;-73
2023/10/28 12:18:26;;;;;;;;;;;19.00;94.00;;;;;;6068194;23;20253;-72
2023/10/28 12:20:51;;;;;;;;;;;19.10;93.90;;;;;;6068828;23;20257;-73
2023/10/28 12:23:17;;;;;;;;;;;19.10;94.00;;;;;;6068247;23;20331;-73
2023/10/28 12:25:43;;;;;;;;;;;19.10;94.00;;;;;;6068364;23;19925;-72
2023/10/28 12:28:09;;;;;;;;;;;19.00;93.80;;;;;;6068806;23;19909;-73
2023/10/28 12:30:34;;;;;;;;;;;18.90;94.00;;;;;;6068712;23;20362;-81
2023/10/28 12:33:00;;;;;;;;;;;18.90;94.00;;;;;;6068367;23;19924;-81
2023/10/28 12:35:26;;;;;;;;;;;18.90;94.00;;;;;;6068563;23;19958;-81
2023/10/28 12:37:51;;;;;;;;;;;18.90;94.00;;;;;;6068214;23;20306;-80
2023/10/28 12:40:17;;;;;;;;;;;18.90;94.60;;;;;;6068054;23;19901;-80
2023/10/28 12:42:42;;;;;;;;;;;18.80;94.20;;;;;;6068280;23;20215;-73
2023/10/28 12:45:09;;;;;;;;;;;18.90;94.20;;;;;;6068193;23;19901;-73
2023/10/28 12:47:35;;;;;;;;;;;18.80;93.80;;;;;;6068571;23;19949;-73
2023/10/28 12:50:03;;;;;;;;;;;18.80;94.20;;;;;;6068290;23;19926;-73
2023/10/28 12:52:30;;;;;;;;;;;18.80;94.30;;;;;;6067764;23;19901;-73
2023/10/28 12:54:56;;;;;;;;;;;18.80;94.40;;;;;;6067891;23;19980;-73
2023/10/28 12:57:22;;;;;;;;;;;18.60;94.30;;;;;;6068265;23;19910;-73
2023/10/28 12:59:48;;;;;;;;;;;18.80;94.40;;;;;;6068395;23;19949;-74
2023/10/28 13:02:15;;;;;;;;;;;18.70;94.10;;;;;;6067465;23;19992;-74
2023/10/28 13:04:40;;;;;;;;;;;18.80;94.30;;;;;;6067680;23;20306;-73
2023/10/28 13:07:06;;;;;;;;;;;18.80;94.40;;;;;;6068308;23;19937;-73
2023/10/28 13:09:31;;;;;;;;;;;18.70;94.10;;;;;;6067785;23;20234;-75
2023/10/28 13:11:59;;;;;;;;;;;18.90;94.20;;;;;;6067794;23;19901;-74
2023/10/28 13:14:26;;;;;;;;;;;19.10;94.00;;;;;;6067581;23;19901;-74
2023/10/28 13:16:52;;;;;;;;;;;19.20;93.80;;;;;;6067629;23;19909;-75
2023/10/28 13:19:19;;;;;;;;;;;19.40;93.60;;;;;;6067726;23;20373;-74
2023/10/28 13:21:46;;;;;;;;;;;19.50;93.30;;;;;;6067775;23;19972;-74
2023/10/28 13:24:12;;;;;;;;;;;19.60;93.10;;;;;;6067876;23;19920;-73
2023/10/28 13:26:41;;;;;;;;;;;19.70;92.90;;;;;;6068224;23;19901;-73
2023/10/28 13:29:08;;;;;;;;;;;19.80;92.50;;;;;;6068212;23;19953;-80
2023/10/28 13:31:34;;;;;;;;;;;19.90;92.80;;;;;;6068132;23;20321;-86
2023/10/28 13:34:01;;;;;;;;;;;20.00;92.50;;;;;;6067673;23;19902;-81
2023/10/28 13:36:26;;;;;;;;;;;20.10;92.50;;;;;;6067691;23;20325;-79
2023/10/28 13:38:52;;;;;;;;;;;20.10;92.50;;;;;;6067635;23;19901;-84
2023/10/28 13:41:17;;;;;;;;;;;20.00;92.40;;;;;;6067621;23;19901;-82
2023/10/28 13:43:43;;;;;;;;;;;20.10;92.20;;;;;;6067482;23;19980;-87
2023/10/28 13:46:09;;;;;;;;;;;20.30;92.30;;;;;;6067695;23;19908;-81
2023/10/28 13:48:34;;;;;;;;;;;20.10;92.20;;;;;;6067328;23;19905;-82
2023/10/28 13:51:00;;;;;;;;;;;20.40;92.20;;;;;;6067792;23;19906;-83
2023/10/28 13:53:26;;;;;;;;;;;20.20;92.20;;;;;;6068027;23;20286;-80
2023/10/28 13:55:59;;;;;;;;;;;20.30;92.10;;;;;;6067601;23;19910;-82
2023/10/28 13:58:27;;;;;;;;;;;20.30;89.70;;;;;;6067906;23;19933;-73
2023/10/28 14:00:54;;;;;;;;;;;20.40;92.30;;;;;;6067708;23;19969;-73
2023/10/28 14:03:20;;;;;;;;;;;20.30;92.00;;;;;;6067523;23;19921;-72
2023/10/28 14:05:46;;;;;;;;;;;20.30;92.10;;;;;;6068416;23;20373;-73
2023/10/28 14:08:12;;;;;;;;;;;20.50;92.30;;;;;;6069526;23;19980;-80
2023/10/28 14:10:37;;;;;;;;;;;20.30;92.30;;;;;;6069448;23;19940;-79
2023/10/28 14:13:03;;;;;;;;;;;20.30;92.40;;;;;;6043961;23;20137;-80
2023/10/28 14:15:29;;;;;;;;;;;20.20;92.60;;;;;;6069863;23;19909;-81